Tindouf, Tindouf Airport (DAOF)

NameTindouf Airport
CityTindouf
CountryAlgeria
ICAODAOF
IATATIN
Altitude443 m
CoordinatesGoogle Map
Live Air TrafficLiveATC.net
METARDAOF 251700Z 28020KT CAVOK 25/03 Q1010
2020-04-25 17:00:00 Wind: West (280°) 10.29 m/s - Visibility: > 10000 m - Weather: CAVOK - Temperature: 25 °C - Dew point: 3 °C - Humidity: 24% - Pressure: 1010 hPa

Sorry, no flights used the airport in this database.